London, Ohio
Current Conditions -  °F | °C
As of 5:55 AM on Thursday 27 Nov 2014 (Local Time) from KUYF Reporting Station
Overcast Overcast  
Wind Chill: 20°   Ceiling: 3400
Heat Index: 28°   Visibility: 7mi
Dew Point: 27°   Wind: 9mph
Humidity: 93%   Direction: 320°NW
Pressure: 30.09"   Gusts: NA
Location:  39.89°N, 83.45°W
Report Text: KUYF 271055Z AUTO 32008KT 7SM SCT011 OVC034 M02/M03 A3009 RMK AO2
Loading
Personal Weather Stations






























Interactive Weather Map New forecast layout! Learn more

10-Day Weather Forecast

Advertisements
Track Severe Weather on mobile